全部
Warkworth Airport (Warkworth, New South Wales) YWKW 天气
There is no TAF data available at YWKW or any nearby airports.
There is no METAR data available at YWKW. Showing METAR data for YCNK (25 mi SE).
CES近期METAR历史数据(YWKW无数据)
| Date | Time (AEST) | Flight Rules | Wind Dir. | Speed | Type | Height AGL (ft) | Visibility | Temp (°C) | Temp (°F) | Dew Point (°C) | Dew Point (°F) | Rel. Humid. | Pressure | Density Altitude | Remarks |
|---|---|---|---|---|---|---|---|---|---|---|---|---|---|---|---|
| 04-五月 | 21:00 | n/a | 10° | 2 kt | Missing | 17° | 62° | 16° | 60° | 94% | 1016 mb | 369 ft | |||
| 04-五月 | 20:00 | n/a | 230° | 1 kt | Missing | 17° | 62° | 16° | 60° | 94% | 1016 mb | 369 ft | |||
| 04-五月 | 19:00 | n/a | 340° | 7 kt | Missing | 19° | 66° | 15° | 59° | 78% | 1016 mb | 609 ft | |||
| 04-五月 | 18:00 | n/a | 350° | 7 kt | Missing | 20° | 68° | 15° | 59° | 73% | 1015 mb | 758 ft | |||
| 04-五月 | 17:00 | n/a | 350° | 6 kt | Missing | 21° | 69° | 15° | 59° | 69% | 1015 mb | 878 ft | |||
| 04-五月 | 16:00 | n/a | 310° | 5 kt | Missing | 22° | 71° | 14° | 57° | 60% | 1015 mb | 998 ft | |||
| 04-五月 | 15:00 | n/a | 340° | 2 kt | Missing | 23° | 73° | 14° | 57° | 57% | 1015 mb | 1,118 ft | |||
| 04-五月 | 14:00 | n/a | 320° | 5 kt | Missing | 23° | 73° | 13° | 55° | 53% | 1015 mb | 1,118 ft | |||
| 04-五月 | 13:00 | n/a | 300° | 4 kt | Missing | 24° | 75° | 13° | 55° | 50% | 1016 mb | 1,209 ft | |||
| 04-五月 | 12:00 | n/a | 290° | 9 kt | Missing | 24° | 75° | 13° | 55° | 50% | 1017 mb | 1,179 ft | |||
| 04-五月 | 11:00 | n/a | 320° | 5 kt | Missing | 25° | 77° | 13° | 55° | 47% | 1017 mb | 1,299 ft | |||
| 04-五月 | 10:00 | n/a | 30° | 4 kt | Missing | 23° | 73° | 15° | 59° | 61% | 1017 mb | 1,059 ft | |||
| 04-五月 | 09:00 | n/a | 90° | 4 kt | Missing | 19° | 66° | 15° | 59° | 78% | 1018 mb | 549 ft | |||
| 04-五月 | 08:00 | n/a | Calm | Missing | 14° | 57° | 13° | 55° | 94% | 1017 mb | -21 ft | ||||
| 04-五月 | 07:00 | n/a | Calm | Missing | 10° | 50° | 9° | 48° | 93% | 1017 mb | -501 ft | ||||
| 04-五月 | 06:00 | n/a | Calm | Missing | 9° | 48° | 9° | 48° | 100% | 1016 mb | -591 ft | ||||
| 04-五月 | 05:00 | n/a | Calm | Missing | 10° | 50° | 10° | 50° | 100% | 1016 mb | -471 ft | ||||
| 04-五月 | 04:00 | n/a | Calm | Missing | 10° | 50° | 10° | 50° | 100% | 1016 mb | -471 ft | ||||
| 04-五月 | 03:00 | n/a | Calm | Missing | 11° | 51° | 10° | 50° | 94% | 1016 mb | -351 ft | ||||
| 04-五月 | 02:00 | n/a | Calm | Missing | 11° | 51° | 11° | 51° | 100% | 1017 mb | -381 ft | ||||
| 04-五月 | 01:00 | n/a | Calm | Missing | 12° | 53° | 12° | 53° | 100% | 1017 mb | -261 ft | ||||
| 04-五月 | 00:00 | n/a | 250° | 3 kt | Missing | 12° | 53° | 12° | 53° | 100% | 1018 mb | -291 ft | |||
| 03-五月 | 23:00 | n/a | 210° | 1 kt | Missing | 13° | 55° | 11° | 51° | 88% | 1018 mb | -171 ft | |||
| 03-五月 | 22:00 | n/a | 210° | 2 kt | Missing | 14° | 57° | 12° | 53° | 88% | 1019 mb | -80 ft |
登录
| 您的浏览器不支持. 升级您的浏览器 |
